Fort McMurray Airport
CYMM : now visible

Airfield :











YOU CAN JOIN US ON...

 
LOGIN :

Register | Disclaimer

   EN    FR    IT 

 









Legend :    VFR   Marginal VFR   IFR   Intensive IFR   Very Intensive IFR
Visi :
Ceiling :
>= 8 km
>= 3000ft
5 to 8 km
1000 to 3000 ft
1500m to 5 km
500 to 1000 ft
800 to 1500m
200 to 500 ft
< 800m
< 200 ft
Symbols :   Thunderstorms  Fog  Heavy snow  Heavy precipitations  Wind > 20 kt






- Airport Elevation : 1211 ft
- IATA code : YMM


CYMM - Fort McMurray

CURRENT METAR :
  • 082237Z AUTO 00000KT 9SM -SN BKN013 OVC023 M08/M09 A2910 RMK SLP882

EXPIRED METARs :
  • 082200Z AUTO 34002KT 9SM BKN010 BKN018 OVC023 M08/M09 A2909 RMK SLP879
  • 082100Z AUTO 00000KT 9SM OVC010 M08/M10 A2907 RMK SLP873
  • 082000Z AUTO 02002KT 9SM OVC010 M09/M10 A2906 RMK SLP871
  • 081936Z AUTO 34003KT 330V060 9SM OVC017 M09/M10 A2906 RMK SLP869

TAF AMD TAF CYMM
Valid from the 08 at 19:00 until the 09 at 07:00 UTC


081915Z 0819/0907 VRB03KT 6SM -SN OVC020
TEMPO 0819/0822 1SM -SHSN OVC012
FM082200 26006KT P6SM -SN BKN025 BKN080
TEMPO 0822/0902 3SM -SN OVC020
FM090200 27012KT P6SM BKN030
TEMPO 0902/0907 SCT030 RMK FCST BASED ON AUTO OBS. NXT FCST BY 090100Z
CZEG FIR / North America



MET'MAP, your aeronautical weather chart ! - Copyright ORBIFLY December 2007 - Disclaimer

ORBIFLY MET'MAP TEAM :

Programming & Development : Alexandra Zaïnal
Concept & original design : Baudouin d'Aumeries
Assistance for programming : Marc-Olivier Méhu
Technical & hardware support : Manuel Goepfert

Contact : metmap@orbifly.com




SOURCES & CREDITS :

   NOAA       Earth
Advisory